Time;durP1;ratioP1;P1;durP2;ratioP2;P2;SDS_P1;SDS_P2;PMS_P1;PMS_P2;Temp;Humidity;BMP_temperature;BMP_pressure;BME280_temperature;BME280_humidity;BME280_pressure;Samples;Min_cycle;Max_cycle;Signal;HPM_P1;HPM_P2
2021/07/17 00:00:16;;;;;;;6.40;2.50;;;;;;;25.70;53.27;101837.84;5034984;28;20028;-92
2021/07/17 00:02:41;;;;;;;6.75;2.22;;;;;;;25.65;53.47;101842.91;5034786;28;20561;-92
2021/07/17 00:05:12;;;;;;;4.15;2.05;;;;;;;25.68;53.21;101836.34;5034538;28;20030;-92
2021/07/17 00:07:38;;;;;;;4.82;2.00;;;;;;;25.51;53.57;101836.34;5033470;28;20382;-92
2021/07/17 00:10:09;;;;;;;3.72;2.30;;;;;;;25.72;53.21;101833.13;5033399;28;20079;-92
2021/07/17 00:12:35;;;;;;;;;;;;;;;25.93;52.75;101834.50;5035082;28;20052;-92
2021/07/17 00:15:00;;;;;;;3.47;1.92;;;;;;;25.67;52.40;101832.81;5034618;28;19952;-92
2021/07/17 00:17:25;;;;;;;3.58;2.35;;;;;;;25.67;52.75;101834.66;5034677;28;20147;-92
2021/07/17 00:19:51;;;;;;;7.50;2.50;;;;;;;25.56;53.77;101829.63;5034503;28;20026;-93
2021/07/17 00:22:16;;;;;;;5.45;2.22;;;;;;;25.43;53.90;101838.19;5034912;28;20498;-92
2021/07/17 00:24:41;;;;;;;3.20;2.58;;;;;;;25.42;54.16;101841.91;5034283;28;20022;-92
2021/07/17 00:27:07;;;;;;;3.72;2.08;;;;;;;25.21;55.58;101835.09;5034322;28;20044;-92
2021/07/17 00:29:32;;;;;;;5.15;2.42;;;;;;;25.22;55.11;101831.47;5034160;28;20083;-92
2021/07/17 00:31:57;;;;;;;3.70;2.20;;;;;;;25.14;55.21;101834.09;5034521;28;20021;-92
2021/07/17 00:34:24;;;;;;;4.22;2.28;;;;;;;25.08;55.73;101840.13;5034003;28;20037;-92
2021/07/17 00:36:50;;;;;;;3.47;2.33;;;;;;;25.10;56.32;101846.19;5034393;28;20032;-92
2021/07/17 00:39:15;;;;;;;4.88;2.58;;;;;;;24.99;55.79;101836.59;5034221;28;20021;-92
2021/07/17 00:41:40;;;;;;;4.78;2.50;;;;;;;25.03;56.05;101839.78;5034112;28;20057;-93
2021/07/17 00:44:07;;;;;;;2.88;2.20;;;;;;;25.03;56.76;101837.94;5033936;28;20021;-93
2021/07/17 00:46:34;;;;;;;4.72;2.90;;;;;;;24.98;57.23;101840.28;5033898;28;20026;-92
2021/07/17 00:48:59;;;;;;;4.80;2.47;;;;;;;24.90;56.90;101837.56;5033951;28;20112;-92
2021/07/17 00:51:26;;;;;;;3.72;2.38;;;;;;;24.89;57.90;101842.09;5034132;28;20096;-91
2021/07/17 00:53:51;;;;;;;4.90;2.45;;;;;;;24.86;57.80;101841.56;5033743;28;20072;-92
2021/07/17 00:56:18;;;;;;;4.93;2.00;;;;;;;24.84;57.61;101838.22;5034177;28;20029;-92
2021/07/17 00:58:46;;;;;;;6.47;2.60;;;;;;;24.85;58.43;101847.97;5034255;28;20408;-92
2021/07/17 01:01:12;;;;;;;3.67;2.50;;;;;;;24.68;57.54;101845.22;5033796;28;20387;-92
2021/07/17 01:03:38;;;;;;;4.38;2.28;;;;;;;24.68;58.42;101847.06;5033561;28;20026;-92
2021/07/17 01:06:04;;;;;;;2.13;1.80;;;;;;;24.59;57.83;101845.38;5033783;28;20041;-93
2021/07/17 01:08:29;;;;;;;6.85;2.65;;;;;;;24.48;57.90;101847.28;5033923;28;20025;-92
2021/07/17 01:10:54;;;;;;;3.28;2.50;;;;;;;24.41;58.55;101848.94;5033592;28;20030;-93
2021/07/17 01:13:20;;;;;;;4.38;2.28;;;;;;;24.35;58.65;101850.41;5033627;28;20021;-93
2021/07/17 01:15:45;;;;;;;5.00;2.40;;;;;;;24.38;59.09;101851.09;5033278;28;20025;-92
2021/07/17 01:18:12;;;;;;;3.75;2.60;;;;;;;24.40;59.28;101849.94;5033551;28;20026;-93
2021/07/17 01:20:38;;;;;;;6.57;2.80;;;;;;;24.30;59.37;101847.34;5033377;28;20486;-92
2021/07/17 01:23:04;;;;;;;3.25;2.35;;;;;;;24.23;59.35;101857.06;5033349;28;20025;-92
2021/07/17 01:25:33;;;;;;;4.75;2.60;;;;;;;24.25;59.47;101848.84;5033389;28;20033;-93
2021/07/17 01:27:59;;;;;;;4.15;2.15;;;;;;;24.22;60.74;101847.31;5033191;28;20031;-93
2021/07/17 01:30:30;;;;;;;3.25;2.35;;;;;;;24.38;60.64;101849.25;5033155;28;20112;-92
2021/07/17 01:32:57;;;;;;;4.40;2.42;;;;;;;24.17;60.55;101846.97;5033101;28;20030;-93
2021/07/17 01:35:22;;;;;;;5.32;2.53;;;;;;;24.20;60.42;101843.94;5033058;28;20036;-93
2021/07/17 01:37:48;;;;;;;3.67;2.40;;;;;;;24.14;60.64;101853.47;5033467;28;20025;-93
2021/07/17 01:40:21;;;;;;;4.18;2.20;;;;;;;24.20;61.01;101843.13;5033046;28;20028;-92
2021/07/17 01:42:49;;;;;;;5.10;2.65;;;;;;;24.15;60.40;101843.56;5032993;28;20026;-93
2021/07/17 01:45:30;;;;;;;3.88;2.28;;;;;;;24.24;60.35;101850.69;5032831;28;20468;-92
2021/07/17 01:47:56;;;;;;;5.13;2.85;;;;;;;24.04;61.11;101852.75;5032648;28;20043;-92
2021/07/17 01:50:24;;;;;;;3.88;2.38;;;;;;;24.13;61.20;101849.13;5032894;28;20116;-92
2021/07/17 01:52:50;;;;;;;6.47;2.80;;;;;;;24.01;60.85;101852.22;5032684;28;20022;-92
2021/07/17 01:55:17;;;;;;;6.32;2.55;;;;;;;23.97;61.33;101846.31;5032797;28;20037;-93
2021/07/17 01:57:44;;;;;;;4.38;2.42;;;;;;;23.99;61.10;101849.69;5032754;28;20031;-92
2021/07/17 02:00:10;;;;;;;4.53;2.50;;;;;;;23.91;61.62;101846.94;5033406;28;20087;-92
2021/07/17 02:02:35;;;;;;;4.28;2.28;;;;;;;23.89;62.26;101846.25;5032939;28;20025;-93
2021/07/17 02:05:03;;;;;;;2.80;2.50;;;;;;;23.90;61.66;101845.28;5032584;28;20025;-93
2021/07/17 02:07:29;;;;;;;9.98;3.33;;;;;;;23.81;61.68;101847.03;5032617;28;20041;-92
2021/07/17 02:09:54;;;;;;;4.15;2.53;;;;;;;23.84;62.67;101852.09;5032325;28;20380;-92
2021/07/17 02:12:19;;;;;;;3.80;2.63;;;;;;;23.80;62.51;101847.22;5032357;28;20391;-92
2021/07/17 02:14:45;;;;;;;3.70;1.90;;;;;;;23.82;62.34;101842.53;5031909;28;20120;-92
2021/07/17 02:17:11;;;;;;;4.75;2.67;;;;;;;23.69;62.24;101850.94;5032392;28;20029;-92
2021/07/17 02:19:36;;;;;;;5.32;2.75;;;;;;;23.74;62.04;101845.97;5032448;28;20040;-93
2021/07/17 02:22:02;;;;;;;6.97;2.90;;;;;;;23.74;62.45;101844.13;5032197;28;20052;-93
2021/07/17 02:24:28;;;;;;;2.88;2.17;;;;;;;23.73;62.58;101842.41;5032018;28;20038;-93
2021/07/17 02:26:53;;;;;;;5.40;2.72;;;;;;;23.72;62.54;101837.25;5030904;28;20025;-94
2021/07/17 02:29:19;;;;;;;5.22;2.67;;;;;;;23.72;62.50;101827.34;5030986;28;20079;-93
2021/07/17 02:31:45;;;;;;;6.20;2.90;;;;;;;23.71;62.78;101835.53;5032202;28;20108;-92
2021/07/17 02:34:12;;;;;;;6.13;2.42;;;;;;;23.71;62.26;101840.91;5031730;28;20484;-92
2021/07/17 02:36:38;;;;;;;3.42;2.50;;;;;;;23.68;62.20;101825.97;5032598;28;20112;-92
2021/07/17 02:39:08;;;;;;;11.13;3.50;;;;;;;23.63;61.77;101832.78;5031903;28;20515;-92
2021/07/17 02:41:34;;;;;;;6.68;2.40;;;;;;;23.58;61.46;101832.41;5031806;28;20380;-92
2021/07/17 02:44:00;;;;;;;3.58;2.88;;;;;;;23.57;62.07;101831.56;5031864;28;20480;-92
2021/07/17 02:46:25;;;;;;;5.05;2.72;;;;;;;23.62;62.51;101826.59;5031906;28;20029;-92
2021/07/17 02:48:51;;;;;;;4.30;2.08;;;;;;;23.62;62.41;101826.59;5032013;28;20598;-92
2021/07/17 02:51:16;;;;;;;3.38;2.15;;;;;;;23.62;62.31;101826.59;5031859;28;20045;-92
2021/07/17 02:53:42;;;;;;;3.53;2.65;;;;;;;23.45;62.01;101830.13;5031728;28;20030;-92
2021/07/17 02:56:07;;;;;;;4.75;2.60;;;;;;;23.40;62.25;101827.06;5031956;28;20384;-93
2021/07/17 02:58:33;;;;;;;4.32;2.65;;;;;;;23.41;61.71;101826.91;5031808;28;20208;-93
2021/07/17 03:00:58;;;;;;;5.75;2.67;;;;;;;23.45;62.19;101830.13;5031833;28;20072;-92
2021/07/17 03:03:24;;;;;;;3.58;2.60;;;;;;;23.38;61.96;101831.75;5031712;28;20100;-92
2021/07/17 03:05:49;;;;;;;6.80;2.40;;;;;;;23.42;62.37;101830.44;5031558;28;20033;-92
2021/07/17 03:08:24;;;;;;;3.40;2.20;;;;;;;23.43;62.99;101832.97;5031736;28;20443;-92
2021/07/17 03:10:54;;;;;;;6.53;2.55;;;;;;;23.53;62.48;101827.53;5031598;28;20108;-92
2021/07/17 03:13:20;;;;;;;5.47;2.30;;;;;;;23.37;63.37;101833.59;5031529;28;20033;-93
2021/07/17 03:15:48;;;;;;;5.18;2.58;;;;;;;23.33;63.69;101826.84;5031516;28;20112;-92
2021/07/17 03:18:14;;;;;;;3.95;2.83;;;;;;;23.34;63.89;101825.84;5031552;28;20044;-93
2021/07/17 03:20:39;;;;;;;5.32;3.17;;;;;;;23.37;63.72;101828.22;5031673;28;20467;-93
2021/07/17 03:23:05;;;;;;;2.92;2.45;;;;;;;23.36;63.80;101816.66;5031297;28;20463;-92
2021/07/17 03:25:31;;;;;;;4.85;2.75;;;;;;;23.33;63.96;101822.31;5031593;28;20459;-92
2021/07/17 03:27:57;;;;;;;3.65;2.40;;;;;;;23.32;63.91;101823.34;5035545;28;20026;-92
2021/07/17 03:30:22;;;;;;;6.22;2.67;;;;;;;23.28;63.53;101821.97;5035344;28;20018;-91
2021/07/17 03:32:47;;;;;;;4.38;2.78;;;;;;;23.29;64.02;101825.47;5035261;28;20017;-93
2021/07/17 03:35:13;;;;;;;3.53;2.70;;;;;;;23.21;63.56;101817.38;5035234;28;20041;-92
2021/07/17 03:37:38;;;;;;;5.05;2.28;;;;;;;23.18;63.97;101823.84;5035417;28;20030;-92
2021/07/17 03:40:05;;;;;;;4.63;2.65;;;;;;;23.15;64.13;101821.50;5035221;28;20431;-92
2021/07/17 03:42:31;;;;;;;4.90;2.42;;;;;;;23.12;64.65;101830.69;5035108;28;20036;-92
2021/07/17 03:44:56;;;;;;;4.13;2.80;;;;;;;23.02;63.75;101831.69;5035074;28;20021;-91
2021/07/17 03:47:22;;;;;;;3.83;2.63;;;;;;;22.82;63.63;101836.34;5035096;28;20619;-93
2021/07/17 03:49:47;;;;;;;6.93;2.97;;;;;;;22.86;63.42;101838.56;5035166;28;20026;-91
2021/07/17 03:52:13;;;;;;;5.07;2.50;;;;;;;22.87;63.43;101831.38;5035096;28;20025;-92
2021/07/17 03:54:38;;;;;;;5.15;2.40;;;;;;;22.68;63.67;101835.00;5034947;28;20460;-92
2021/07/17 03:57:04;;;;;;;3.88;2.35;;;;;;;22.72;64.02;101834.53;5035064;28;20057;-92
2021/07/17 03:59:29;;;;;;;4.60;2.53;;;;;;;22.70;63.81;101839.19;5034792;28;20056;-92
2021/07/17 04:01:55;;;;;;;4.35;2.60;;;;;;;22.76;63.38;101833.25;5034968;28;20090;-92
2021/07/17 04:04:20;;;;;;;2.42;2.08;;;;;;;22.75;63.04;101831.59;5034495;28;20040;-92
2021/07/17 04:06:45;;;;;;;6.80;3.05;;;;;;;22.74;62.44;101827.19;5034785;28;20029;-92
2021/07/17 04:09:11;;;;;;;5.35;2.53;;;;;;;22.73;63.19;101832.72;5034865;28;20034;-92
2021/07/17 04:11:36;;;;;;;5.00;2.67;;;;;;;22.76;63.24;101833.25;5034900;28;20025;-92
2021/07/17 04:14:02;;;;;;;2.60;2.05;;;;;;;22.76;63.54;101841.28;5034647;28;20415;-93
2021/07/17 04:16:27;;;;;;;4.78;2.28;;;;;;;22.78;63.35;101836.63;5034762;28;20029;-93
2021/07/17 04:18:53;;;;;;;4.60;2.47;;;;;;;22.79;62.72;101832.13;5034697;28;20025;-92
2021/07/17 04:21:18;;;;;;;5.00;2.90;;;;;;;22.81;62.65;101838.19;5034321;28;20029;-92
2021/07/17 04:23:44;;;;;;;3.13;2.65;;;;;;;22.90;62.68;101842.63;5033192;28;20083;-91
2021/07/17 04:26:09;;;;;;;5.00;2.25;;;;;;;22.90;63.06;101837.25;5034400;28;20033;-92
2021/07/17 04:28:35;;;;;;;3.53;2.63;;;;;;;22.92;63.89;101829.06;5034804;28;20030;-92
2021/07/17 04:31:01;;;;;;;5.30;2.75;;;;;;;22.96;64.21;101839.31;5034292;28;20056;-92
2021/07/17 04:33:27;;;;;;;3.40;2.33;;;;;;;23.03;64.03;101833.44;5034296;28;20373;-92
2021/07/17 04:35:53;;;;;;;6.10;2.65;;;;;;;23.10;64.33;101835.31;5034050;28;20037;-92
2021/07/17 04:38:18;;;;;;;3.03;2.33;;;;;;;23.11;63.63;101828.16;5033771;28;20024;-92
2021/07/17 04:40:43;;;;;;;5.35;2.70;;;;;;;23.10;63.44;101832.63;5034392;28;20021;-92
2021/07/17 04:43:09;;;;;;;3.92;2.13;;;;;;;23.10;63.10;101835.31;5034099;28;20116;-92
2021/07/17 04:45:34;;;;;;;7.07;2.33;;;;;;;23.17;63.16;101833.72;5034074;28;20033;-92
2021/07/17 04:48:03;;;;;;;4.28;2.50;;;;;;;23.22;63.09;101841.31;5033951;28;20056;-92
2021/07/17 04:50:30;;;;;;;5.13;2.22;;;;;;;23.20;63.66;101840.63;5034628;28;20422;-92
2021/07/17 04:52:55;;;;;;;2.88;2.20;;;;;;;23.27;63.43;101838.19;5033833;28;20014;-92
2021/07/17 04:55:20;;;;;;;2.20;2.00;;;;;;;23.27;63.36;101839.03;5033991;28;20467;-92
2021/07/17 04:57:46;;;;;;;4.50;2.05;;;;;;;23.21;63.61;101845.00;5034140;28;20021;-91
2021/07/17 05:00:12;;;;;;;3.15;2.85;;;;;;;23.30;63.85;101852.13;5033892;28;20049;-92
2021/07/17 05:02:48;;;;;;;3.08;1.80;;;;;;;23.46;63.17;101847.88;5033804;28;20465;-92
2021/07/17 05:05:18;;;;;;;3.53;2.20;;;;;;;23.45;63.64;101844.38;5033534;28;20143;-93
2021/07/17 05:07:44;;;;;;;6.35;2.15;;;;;;;23.35;63.17;101844.44;5033738;28;20124;-92
2021/07/17 05:10:13;;;;;;;5.15;2.40;;;;;;;23.44;63.31;101841.84;5033796;28;20183;-93
2021/07/17 05:12:38;;;;;;;3.75;2.45;;;;;;;23.41;63.15;101843.00;5033544;28;20033;-93
2021/07/17 05:15:06;;;;;;;5.40;2.33;;;;;;;23.52;63.55;101836.56;5034060;28;20037;-92
2021/07/17 05:17:31;;;;;;;4.90;2.47;;;;;;;23.42;63.00;101833.13;5033265;28;20024;-92
2021/07/17 05:19:57;;;;;;;5.35;3.00;;;;;;;23.34;63.01;101840.09;5033416;28;20022;-92
2021/07/17 05:22:22;;;;;;;3.72;2.45;;;;;;;23.30;63.00;101838.72;5033571;28;20033;-92
2021/07/17 05:24:47;;;;;;;3.47;2.08;;;;;;;23.32;63.03;101836.75;5033319;28;20091;-92
2021/07/17 05:27:13;;;;;;;3.63;2.38;;;;;;;23.38;63.07;101847.81;5033381;28;20035;-93
2021/07/17 05:29:38;;;;;;;3.78;2.15;;;;;;;23.38;62.70;101843.31;5033393;28;20472;-92
2021/07/17 05:32:04;;;;;;;4.10;2.35;;;;;;;23.35;62.75;101847.13;5033026;28;20025;-92
2021/07/17 05:34:29;;;;;;;3.70;1.98;;;;;;;23.33;62.91;101843.75;5032811;28;20021;-93
2021/07/17 05:36:54;;;;;;;4.38;2.30;;;;;;;23.35;63.03;101841.78;5033231;28;20112;-93
2021/07/17 05:39:19;;;;;;;4.97;2.47;;;;;;;23.42;62.82;101851.88;5033104;28;20057;-93
2021/07/17 05:41:45;;;;;;;3.60;2.47;;;;;;;23.44;63.23;101844.53;5032960;28;20022;-93
2021/07/17 05:44:10;;;;;;;7.10;2.47;;;;;;;23.48;63.14;101848.56;5032964;28;20045;-92
2021/07/17 05:46:36;;;;;;;5.32;2.53;;;;;;;23.54;62.97;101845.31;5032857;28;20025;-92
2021/07/17 05:49:01;;;;;;;3.60;2.67;;;;;;;23.51;62.62;101845.59;5032292;28;20545;-92
2021/07/17 05:51:27;;;;;;;3.17;2.40;;;;;;;23.58;63.13;101849.34;5032746;28;20022;-92
2021/07/17 05:53:52;;;;;;;3.33;2.63;;;;;;;23.56;63.16;101848.69;5032749;28;20082;-93
2021/07/17 05:56:17;;;;;;;4.57;2.58;;;;;;;23.60;62.76;101846.50;5032787;28;20040;-92
2021/07/17 05:58:42;;;;;;;3.67;2.13;;;;;;;23.70;62.75;101841.91;5032733;28;20037;-92
2021/07/17 06:01:08;;;;;;;3.55;2.50;;;;;;;23.78;62.41;101847.38;5032504;28;20029;-93
2021/07/17 06:03:33;;;;;;;7.68;2.50;;;;;;;23.78;62.71;101846.53;5032326;28;20040;-92
2021/07/17 06:05:59;;;;;;;4.63;2.30;;;;;;;23.90;62.25;101845.28;5032400;28;20368;-92
2021/07/17 06:08:24;;;;;;;5.72;2.65;;;;;;;23.86;61.97;101850.09;5032498;28;20122;-92
2021/07/17 06:10:49;;;;;;;8.38;2.58;;;;;;;23.69;62.14;101848.25;5032640;28;20029;-93
2021/07/17 06:13:15;;;;;;;7.40;2.95;;;;;;;23.82;61.55;101847.91;5032469;28;20029;-92
2021/07/17 06:15:40;;;;;;;6.63;3.03;;;;;;;24.10;61.03;101856.63;5032267;28;20534;-93
2021/07/17 06:18:05;;;;;;;4.75;2.70;;;;;;;24.34;60.11;101856.78;5032091;28;20464;-92
2021/07/17 06:20:31;;;;;;;3.83;2.65;;;;;;;24.67;59.57;101862.34;5032448;28;20111;-92
2021/07/17 06:22:56;;;;;;;3.95;2.60;;;;;;;25.41;56.49;101856.34;5032398;28;20033;-93
2021/07/17 06:25:22;;;;;;;5.70;3.00;;;;;;;26.20;55.64;101865.53;5032349;28;20029;-93
2021/07/17 06:27:47;;;;;;;5.50;2.60;;;;;;;26.93;54.32;101862.78;5032063;28;20030;-92
2021/07/17 06:30:13;;;;;;;6.43;2.53;;;;;;;27.52;51.67;101857.69;5032083;28;20025;-92
2021/07/17 06:32:38;;;;;;;4.85;2.90;;;;;;;28.14;50.09;101856.66;5031746;28;20064;-91
2021/07/17 06:35:04;;;;;;;5.00;2.50;;;;;;;28.75;49.14;101869.09;5031916;28;20033;-93
2021/07/17 06:37:30;;;;;;;4.90;2.75;;;;;;;29.30;46.76;101869.53;5032132;28;20021;-92
2021/07/17 06:39:55;;;;;;;2.92;1.98;;;;;;;29.78;45.61;101872.47;5031888;28;20109;-94
2021/07/17 06:42:20;;;;;;;3.33;2.13;;;;;;;30.21;44.74;101875.09;5031921;28;20104;-92
2021/07/17 06:44:46;;;;;;;2.45;1.83;;;;;;;30.80;43.40;101873.75;5031756;28;20475;-93
2021/07/17 06:47:11;;;;;;;2.58;1.70;;;;;;;31.08;41.77;101875.53;5031822;28;20553;-92
2021/07/17 06:49:36;;;;;;;3.53;2.10;;;;;;;31.61;41.44;101873.72;5031906;28;20101;-92
2021/07/17 06:52:02;;;;;;;4.63;1.95;;;;;;;32.13;39.69;101873.09;5030611;28;20068;-93
2021/07/17 06:54:27;;;;;;;3.65;1.80;;;;;;;32.63;38.27;101878.84;5031698;28;20030;-94
2021/07/17 06:56:52;;;;;;;5.13;1.70;;;;;;;33.02;37.90;101882.41;5031990;28;20057;-93
2021/07/17 06:59:18;;;;;;;3.45;1.70;;;;;;;33.39;37.52;101879.88;5020236;28;20056;-94
2021/07/17 07:01:43;;;;;;;3.25;1.77;;;;;;;33.77;36.59;101881.72;5027218;28;20051;-92
2021/07/17 07:04:09;;;;;;;2.13;1.83;;;;;;;34.19;35.98;101881.94;5010011;28;20083;-91
2021/07/17 07:06:34;;;;;;;2.70;1.60;;;;;;;34.56;33.99;101865.59;5011673;28;20140;-91
2021/07/17 07:08:59;;;;;;;2.85;1.27;;;;;;;35.24;35.85;101877.28;5011596;28;20460;-93
2021/07/17 07:11:25;;;;;;;3.25;1.40;;;;;;;35.43;34.62;101873.41;5011112;28;20370;-93
2021/07/17 07:13:50;;;;;;;1.70;1.27;;;;;;;35.61;33.61;101874.38;5018476;28;20392;-93
2021/07/17 07:16:15;;;;;;;4.18;1.88;;;;;;;35.78;32.13;101867.16;5011003;28;20083;-93
2021/07/17 07:18:41;;;;;;;2.78;1.30;;;;;;;36.06;32.34;101869.16;5010719;28;20640;-94
2021/07/17 07:21:07;;;;;;;2.67;1.35;;;;;;;36.42;31.69;101872.69;5011693;28;20452;-93
2021/07/17 07:23:32;;;;;;;3.60;1.23;;;;;;;36.76;32.71;101880.22;5011439;28;20050;-93
2021/07/17 07:25:57;;;;;;;2.25;1.17;;;;;;;37.10;29.79;101876.47;5011390;28;20083;-93
2021/07/17 07:28:23;;;;;;;3.55;0.95;;;;;;;37.05;29.97;101879.13;5011598;28;20030;-93
2021/07/17 07:30:48;;;;;;;2.22;1.38;;;;;;;37.50;29.37;101870.06;5011516;28;20032;-93
2021/07/17 07:33:14;;;;;;;2.25;1.10;;;;;;;37.96;29.24;101874.59;5010408;28;20026;-93
2021/07/17 07:35:39;;;;;;;2.40;1.02;;;;;;;38.16;27.58;101882.31;5011347;28;20061;-93
2021/07/17 07:38:04;;;;;;;1.63;0.90;;;;;;;38.54;28.00;101875.09;5010191;28;20034;-93
2021/07/17 07:40:30;;;;;;;3.10;0.90;;;;;;;38.42;27.89;101877.97;5011244;28;20030;-93
2021/07/17 07:42:56;;;;;;;1.60;0.82;;;;;;;38.75;28.68;101877.00;5011265;28;20030;-93
2021/07/17 07:45:22;;;;;;;3.08;1.30;;;;;;;38.84;26.72;101874.59;5011292;28;20443;-93
2021/07/17 07:47:48;;;;;;;2.90;1.15;;;;;;;38.79;26.68;101866.34;5010800;28;20026;-93
2021/07/17 07:50:15;;;;;;;2.35;1.00;;;;;;;39.23;26.93;101871.69;5011027;28;20101;-94
2021/07/17 07:52:40;;;;;;;2.97;1.02;;;;;;;39.43;26.55;101871.88;5011449;28;20029;-92
2021/07/17 07:55:07;;;;;;;2.85;1.10;;;;;;;39.56;26.51;101865.13;5010883;28;20034;-92
2021/07/17 07:57:32;;;;;;;2.80;0.95;;;;;;;39.57;26.54;101868.69;5011397;28;20034;-92
2021/07/17 07:59:58;;;;;;;2.85;1.13;;;;;;;40.01;25.28;101860.16;5011083;28;20037;-92
2021/07/17 08:02:26;;;;;;;2.03;1.10;;;;;;;39.96;26.45;101862.91;5024616;28;20453;-92
2021/07/17 08:04:51;;;;;;;2.15;0.90;;;;;;;40.35;25.82;101862.56;5014158;28;20401;-96
2021/07/17 08:07:17;;;;;;;2.47;1.02;;;;;;;39.25;25.85;101870.34;5011085;28;20053;-92
2021/07/17 08:09:42;;;;;;;3.08;1.20;;;;;;;40.33;26.78;101862.84;5011636;28;20022;-94
2021/07/17 08:12:07;;;;;;;2.90;0.90;;;;;;;40.60;25.86;101868.16;5011551;28;20030;-95
2021/07/17 08:14:33;;;;;;;1.63;0.98;;;;;;;41.05;25.00;101862.16;5014084;28;20373;-94
2021/07/17 08:17:02;;;;;;;2.03;0.80;;;;;;;41.56;23.92;101864.91;5033644;28;20060;-94
2021/07/17 08:19:28;;;;;;;1.35;0.90;;;;;;;41.60;23.95;101863.25;5034399;28;20377;-94
2021/07/17 08:21:53;;;;;;;2.72;1.00;;;;;;;41.94;22.79;101863.47;5034489;28;20076;-94
2021/07/17 08:24:19;;;;;;;2.20;0.98;;;;;;;42.02;24.06;101851.00;5014418;28;20017;-94
2021/07/17 08:26:44;;;;;;;2.55;0.90;;;;;;;41.46;24.00;101856.69;5013706;28;20049;-92
2021/07/17 08:29:09;;;;;;;1.83;0.88;;;;;;;41.99;23.31;101857.94;5014183;28;20053;-94
2021/07/17 08:31:35;;;;;;;1.58;0.95;;;;;;;42.24;22.52;101856.19;5013730;28;20021;-93
2021/07/17 08:34:00;;;;;;;2.97;1.77;;;;;;;42.34;24.26;101860.84;5014457;28;20026;-93
2021/07/17 08:36:25;;;;;;;4.68;1.40;;;;;;;42.22;23.44;101858.41;5013725;28;20034;-94
2021/07/17 08:38:51;;;;;;;2.15;1.15;;;;;;;42.37;24.47;101860.28;5014743;28;20034;-94
2021/07/17 08:41:25;;;;;;;6.22;1.50;;;;;;;42.92;24.05;101863.84;5018793;28;20026;-95
2021/07/17 08:43:54;;;;;;;7.13;1.30;;;;;;;42.86;23.34;101858.63;5013932;28;20097;-95
2021/07/17 08:46:23;;;;;;;3.65;1.40;;;;;;;42.15;23.29;101858.72;5013785;28;20064;-95
2021/07/17 08:48:52;;;;;;;1.90;1.10;;;;;;;42.42;23.86;101856.66;5014279;28;20114;-95
2021/07/17 08:51:18;;;;;;;2.58;1.33;;;;;;;42.19;24.13;101859.81;5029433;28;20284;-95
2021/07/17 08:53:45;;;;;;;2.38;1.20;;;;;;;42.08;24.42;101858.19;5020149;28;20030;-94
2021/07/17 08:56:10;;;;;;;3.05;1.15;;;;;;;42.12;24.55;101861.22;5011613;28;20130;-94
2021/07/17 08:58:35;;;;;;;2.72;1.42;;;;;;;42.44;24.08;101855.28;5012761;28;20454;-94
2021/07/17 09:01:02;;;;;;;3.90;1.40;;;;;;;42.98;22.96;101861.88;5012998;28;20478;-95
2021/07/17 09:03:29;;;;;;;2.75;1.30;;;;;;;43.20;22.79;101858.63;5013201;28;20071;-94
2021/07/17 09:05:54;;;;;;;1.80;0.90;;;;;;;43.01;22.86;101864.03;5013671;28;20122;-93
2021/07/17 09:08:21;;;;;;;1.48;1.00;;;;;;;42.40;23.11;101854.16;5026683;28;20111;-95
2021/07/17 09:10:52;;;;;;;5.18;0.85;;;;;;;41.92;23.43;101859.34;5032809;28;20083;-94
2021/07/17 09:13:32;;;;;;;2.42;1.20;;;;;;;42.31;23.86;101866.94;5023586;28;20026;-94
2021/07/17 09:16:01;;;;;;;4.32;1.27;;;;;;;42.62;24.30;101856.59;5013422;28;20495;-94
2021/07/17 09:18:33;;;;;;;2.28;1.23;;;;;;;42.57;23.31;101853.84;5013003;28;20057;-93
2021/07/17 09:21:20;;;;;;;2.58;1.17;;;;;;;42.25;23.78;101851.50;5024611;28;20018;-95
2021/07/17 09:24:08;;;;;;;3.20;1.60;;;;;;;41.75;23.75;101846.72;5014347;28;20022;-95
2021/07/17 09:26:38;;;;;;;6.72;1.63;;;;;;;41.53;24.09;101852.53;5015259;28;20518;-96
2021/07/17 09:29:09;;;;;;;4.80;1.40;;;;;;;41.06;24.84;101848.13;5016821;28;20025;-95
2021/07/17 09:31:48;;;;;;;3.00;1.20;;;;;;;41.44;24.66;101850.63;5014652;28;20033;-94
2021/07/17 09:34:14;;;;;;;3.28;1.50;;;;;;;42.42;24.00;101846.47;5019386;28;20476;-94
2021/07/17 09:37:00;;;;;;;3.05;1.27;;;;;;;43.00;22.92;101850.53;5016628;28;20452;-94
2021/07/17 09:39:31;;;;;;;3.03;1.27;;;;;;;42.20;23.24;101850.44;5020860;28;20064;-94
2021/07/17 09:42:19;;;;;;;2.25;1.20;;;;;;;42.70;23.38;101844.91;5017849;28;20483;-93
2021/07/17 09:44:51;;;;;;;5.30;1.17;;;;;;;42.70;23.59;101835.81;5017717;28;20430;-93
2021/07/17 09:47:26;;;;;;;4.13;1.20;;;;;;;42.77;23.14;101834.34;5013962;28;20547;-93
2021/07/17 09:50:15;;;;;;;10.05;1.67;;;;;;;41.41;24.20;101833.53;5008388;28;20021;-93
2021/07/17 09:52:42;;;;;;;3.10;1.10;;;;;;;41.77;23.82;101835.41;5010798;28;20029;-94
2021/07/17 09:55:14;;;;;;;2.88;1.33;;;;;;;42.55;23.81;101829.25;5018070;28;20030;-95
2021/07/17 09:57:40;;;;;;;5.00;1.27;;;;;;;41.99;24.14;101830.34;5021400;28;20029;-94
2021/07/17 10:00:08;;;;;;;6.75;1.27;;;;;;;41.92;24.25;101829.00;5020638;28;20459;-94
2021/07/17 10:02:39;;;;;;;5.90;1.50;;;;;;;41.47;24.90;101826.06;5015825;28;20033;-96
2021/07/17 10:05:06;;;;;;;3.00;1.27;;;;;;;42.57;23.79;101829.81;5022525;28;20022;-95
2021/07/17 10:07:31;;;;;;;4.25;1.48;;;;;;;42.54;25.26;101827.63;5027041;28;20026;-96
2021/07/17 10:09:57;;;;;;;3.58;1.60;;;;;;;42.56;23.88;101833.69;5018839;28;20034;-91
2021/07/17 10:12:34;;;;;;;7.35;1.10;;;;;;;43.37;24.34;101828.66;5022045;28;20368;-96
2021/07/17 10:20:13;;;;;;;5.03;2.03;;;;;;;43.42;22.38;101821.41;5511698;22;20052;-96
2021/07/17 10:22:39;;;;;;;2.05;1.05;;;;;;;42.57;24.47;101818.75;5070182;28;20029;-96
2021/07/17 10:30:15;;;;;;;2.92;1.02;;;;;;;42.93;22.79;101810.22;5628053;22;20900;-96
2021/07/17 10:32:41;;;;;;;2.72;1.30;;;;;;;43.20;23.73;101824.66;5182627;22;20060;-96
2021/07/17 10:35:07;;;;;;;4.43;1.05;;;;;;;43.65;22.89;101817.03;5033714;28;20031;-93
2021/07/17 10:37:35;;;;;;;3.22;1.40;;;;;;;43.56;21.78;101820.41;5032193;28;20032;-94
2021/07/17 10:40:14;;;;;;;3.00;1.08;;;;;;;43.60;22.67;101812.34;5025598;28;20026;-94
2021/07/17 10:42:47;;;;;;;2.38;1.08;;;;;;;43.78;22.19;101807.19;5025738;28;20116;-91
2021/07/17 10:45:32;;;;;;;4.18;1.30;;;;;;;43.29;23.20;101803.56;5017874;28;20029;-92
2021/07/17 10:47:57;;;;;;;2.55;1.20;;;;;;;43.51;23.67;101806.66;5017869;28;20049;-95
2021/07/17 10:50:33;;;;;;;4.07;1.70;;;;;;;43.99;22.79;101802.25;5011705;28;20060;-91
2021/07/17 10:52:58;;;;;;;2.08;1.25;;;;;;;43.54;23.38;101797.75;5015579;28;20040;-96
2021/07/17 10:55:32;;;;;;;4.75;2.00;;;;;;;44.26;22.09;101804.34;4995921;28;20059;-94
2021/07/17 10:58:23;;;;;;;2.58;1.20;;;;;;;43.93;21.82;101802.28;5027848;28;20401;-96
2021/07/17 11:00:54;;;;;;;2.78;1.25;;;;;;;44.76;20.81;101793.66;5029472;28;20037;-96
2021/07/17 11:03:32;;;;;;;2.90;1.40;;;;;;;44.47;21.70;101794.63;5039279;28;20033;-96
2021/07/17 11:06:17;;;;;;;3.20;1.20;;;;;;;44.18;21.61;101792.03;5033767;28;20044;-96
2021/07/17 11:08:43;;;;;;;3.42;1.17;;;;;;;44.11;21.38;101797.94;5036414;28;20029;-96
2021/07/17 11:11:27;;;;;;;6.65;0.93;;;;;;;44.02;21.55;101794.16;5029711;28;20100;-96
2021/07/17 11:13:53;;;;;;;3.85;1.38;;;;;;;44.40;21.68;101788.66;5047355;28;20025;-96
2021/07/17 11:16:40;;;;;;;2.03;1.00;;;;;;;44.41;21.97;101787.53;5044652;28;20060;-96
2021/07/17 11:19:15;;;;;;;1.85;1.00;;;;;;;44.70;20.36;101792.91;5040934;28;20428;-95
2021/07/17 11:21:41;;;;;;;1.92;0.93;;;;;;;44.96;19.92;101783.38;5021538;28;20034;-94
2021/07/17 11:24:08;;;;;;;4.07;1.15;;;;;;;44.15;21.22;101781.56;4999164;28;20055;-95
2021/07/17 11:26:33;;;;;;;2.15;1.00;;;;;;;44.86;20.51;101787.94;4991951;28;20137;-96
2021/07/17 11:29:04;;;;;;;2.35;1.25;;;;;;;44.47;20.33;101783.56;4987433;28;20562;-95
2021/07/17 11:31:29;;;;;;;4.63;1.10;;;;;;;44.49;21.52;101791.59;5005087;28;20036;-95
2021/07/17 11:34:10;;;;;;;3.93;0.97;;;;;;;44.15;22.95;101778.78;5005627;28;20109;-95